Time;durP1;ratioP1;P1;durP2;ratioP2;P2;SDS_P1;SDS_P2;PMS_P1;PMS_P2;Temp;Humidity;BMP_temperature;BMP_pressure;BME280_temperature;BME280_humidity;BME280_pressure;Samples;Min_cycle;Max_cycle;Signal;HPM_P1;HPM_P2
2023/05/02 00:00:07;;;;;;;12.73;7.68;;;9.60;93.10;;;;;;5053678;28;20090;-45
2023/05/02 00:02:34;;;;;;;13.82;8.77;;;9.50;93.10;;;;;;5039620;28;20061;-45
2023/05/02 00:05:06;;;;;;;13.73;8.52;;;9.50;93.20;;;;;;5034050;28;20336;-49
2023/05/02 00:07:32;;;;;;;14.20;9.23;;;9.50;93.30;;;;;;5053171;28;20117;-48
2023/05/02 00:10:01;;;;;;;14.43;8.52;;;9.60;93.40;;;;;;5029135;28;20069;-47
2023/05/02 00:12:29;;;;;;;16.17;7.82;;;9.50;93.40;;;;;;5057248;28;20020;-46
2023/05/02 00:14:55;;;;;;;12.05;7.40;;;9.50;93.40;;;;;;5054087;28;20516;-52
2023/05/02 00:17:22;;;;;;;8.43;5.57;;;9.50;93.40;;;;;;5067931;28;20745;-49
2023/05/02 00:19:50;;;;;;;7.43;3.67;;;9.50;93.30;;;;;;5055977;28;20029;-48
2023/05/02 00:22:18;;;;;;;9.00;3.78;;;9.40;93.40;;;;;;5043118;28;20451;-47
2023/05/02 00:24:46;;;;;;;8.73;4.50;;;9.40;93.40;;;;;;5016772;28;20375;-48
2023/05/02 00:27:14;;;;;;;14.43;4.20;;;9.20;93.20;;;;;;5025142;28;20033;-47
2023/05/02 00:29:40;;;;;;;14.85;4.88;;;9.10;93.40;;;;;;5053171;28;20033;-47
2023/05/02 00:32:06;;;;;;;14.15;5.13;;;9.00;93.40;;;;;;5038473;28;20470;-50
2023/05/02 00:34:35;;;;;;;15.68;5.75;;;9.00;93.60;;;;;;5016061;28;20380;-50
2023/05/02 00:37:02;;;;;;;18.50;5.50;;;8.90;93.60;;;;;;5026925;28;20072;-48
2023/05/02 00:39:32;;;;;;;13.60;6.20;;;8.90;93.60;;;;;;5067152;28;20040;-48
2023/05/02 00:41:59;;;;;;;22.20;6.45;;;8.70;93.50;;;;;;5055616;28;20032;-48
2023/05/02 00:44:26;;;;;;;20.67;7.07;;;8.60;93.60;;;;;;5068015;28;20024;-48
2023/05/02 00:46:54;;;;;;;27.75;7.07;;;8.60;93.50;;;;;;5060912;28;20541;-47
2023/05/02 00:49:24;;;;;;;33.00;8.65;;;8.50;93.40;;;;;;5036960;28;20106;-47
2023/05/02 00:51:50;;;;;;;22.60;7.43;;;8.50;93.40;;;;;;5043239;28;20041;-47
2023/05/02 00:54:17;;;;;;;25.95;7.68;;;8.50;93.10;;;;;;5036163;28;20035;-47
2023/05/02 00:56:44;;;;;;;25.45;8.15;;;8.40;93.00;;;;;;5073352;28;20024;-46
2023/05/02 00:59:11;;;;;;;26.95;8.02;;;8.50;92.80;;;;;;5058183;28;20035;-46
2023/05/02 01:02:00;;;;;;;18.40;5.25;;;8.50;92.60;;;;;;5058785;28;20032;-45
2023/05/02 01:04:41;;;;;;;19.13;6.20;;;8.50;92.40;;;;;;5070953;28;20374;-45
2023/05/02 01:07:42;;;;;;;14.13;4.90;;;8.40;92.20;;;;;;5065971;28;20155;-47
2023/05/02 01:10:37;;;;;;;19.45;6.07;;;8.40;91.60;;;;;;5067323;28;20715;-46
2023/05/02 01:13:34;;;;;;;14.30;5.20;;;8.30;90.90;;;;;;5035444;28;20049;-45
2023/05/02 01:16:13;;;;;;;22.67;7.32;;;8.30;90.80;;;;;;5066450;28;20630;-45
2023/05/02 01:18:42;;;;;;;15.73;4.05;;;8.30;90.50;;;;;;5064804;28;20035;-44
2023/05/02 01:21:10;;;;;;;14.18;3.72;;;8.20;90.20;;;;;;5032578;28;20044;-44
2023/05/02 01:24:11;;;;;;;11.18;3.42;;;8.10;89.70;;;;;;5041338;28;20044;-45
2023/05/02 01:26:58;;;;;;;12.18;4.38;;;8.10;89.10;;;;;;5057499;28;20040;-44
2023/05/02 01:29:26;;;;;;;12.68;4.22;;;8.00;88.70;;;;;;5054495;28;20582;-44
2023/05/02 01:31:53;;;;;;;17.00;5.05;;;8.00;88.60;;;;;;5003351;28;20112;-45
2023/05/02 01:34:22;;;;;;;18.60;5.47;;;8.00;88.50;;;;;;5029151;28;20090;-44
2023/05/02 01:36:53;;;;;;;19.70;5.10;;;8.00;88.10;;;;;;5029330;28;20446;-46
2023/05/02 01:39:22;;;;;;;23.25;7.38;;;8.00;88.30;;;;;;5047072;28;20033;-45
2023/05/02 01:42:01;;;;;;;32.45;6.93;;;8.00;88.60;;;;;;5050052;28;20025;-44
2023/05/02 01:44:32;;;;;;;26.02;6.13;;;8.10;88.90;;;;;;5031017;28;20055;-44
2023/05/02 01:47:02;;;;;;;25.25;8.75;;;8.10;88.90;;;;;;5062553;28;20035;-43
2023/05/02 01:49:31;;;;;;;25.05;6.43;;;8.00;89.10;;;;;;5070611;28;20020;-44
2023/05/02 01:52:10;;;;;;;23.35;6.30;;;8.00;89.10;;;;;;5034533;28;20033;-46
2023/05/02 01:54:38;;;;;;;19.75;6.13;;;8.00;88.80;;;;;;5044379;28;20732;-45
2023/05/02 01:57:06;;;;;;;28.63;7.18;;;7.90;88.00;;;;;;5051585;28;20048;-44
2023/05/02 01:59:35;;;;;;;17.17;4.97;;;7.90;87.90;;;;;;5031191;28;20037;-43
2023/05/02 02:02:04;;;;;;;24.17;8.57;;;7.90;87.40;;;;;;5044186;28;20115;-43
2023/05/02 02:04:36;;;;;;;18.40;5.00;;;7.80;86.80;;;;;;5071181;28;20039;-43
2023/05/02 02:07:08;;;;;;;21.45;6.20;;;7.70;86.60;;;;;;5047674;28;20086;-43
2023/05/02 02:09:35;;;;;;;17.35;4.88;;;7.80;86.80;;;;;;5031139;28;20037;-42
2023/05/02 02:12:45;;;;;;;15.38;5.20;;;7.70;86.80;;;;;;5031427;28;20057;-43
2023/05/02 02:15:27;;;;;;;20.27;7.13;;;7.70;86.10;;;;;;5024062;28;20188;-44
2023/05/02 02:18:12;;;;;;;23.92;6.35;;;7.60;85.60;;;;;;5071649;28;20028;-42
2023/05/02 02:20:41;;;;;;;17.08;5.30;;;7.60;85.00;;;;;;5033364;28;20029;-44
2023/05/02 02:23:21;;;;;;;19.95;5.35;;;7.50;85.10;;;;;;5034496;28;20049;-43
2023/05/02 02:25:52;;;;;;;13.57;4.30;;;7.60;85.00;;;;;;5061726;28;20032;-42
2023/05/02 02:28:19;;;;;;;16.67;4.65;;;7.50;85.20;;;;;;5039625;28;20034;-43
2023/05/02 02:30:45;;;;;;;16.63;5.20;;;7.50;85.50;;;;;;5044592;28;20032;-44
2023/05/02 02:33:12;;;;;;;16.50;3.95;;;7.40;84.00;;;;;;5038194;28;20343;-42
2023/05/02 02:35:41;;;;;;;12.75;4.15;;;7.50;83.80;;;;;;5043562;28;20018;-43
2023/05/02 02:38:13;;;;;;;13.32;5.35;;;7.40;83.30;;;;;;5000545;28;20040;-43
2023/05/02 02:41:05;;;;;;;20.35;4.78;;;7.40;83.10;;;;;;5031993;28;20112;-43
2023/05/02 02:44:03;;;;;;;16.23;4.60;;;7.40;82.90;;;;;;5030489;28;20059;-42
2023/05/02 02:47:01;;;;;;;21.35;7.25;;;7.40;83.40;;;;;;5040177;28;20027;-42
2023/05/02 02:49:48;;;;;;;21.23;4.78;;;7.40;83.50;;;;;;5072043;28;20072;-42
2023/05/02 02:52:45;;;;;;;20.35;4.80;;;7.40;83.10;;;;;;5049293;28;20025;-42
2023/05/02 02:55:38;;;;;;;15.30;4.60;;;7.40;82.90;;;;;;5033374;28;20037;-43
2023/05/02 02:58:34;;;;;;;17.95;4.68;;;7.40;83.20;;;;;;5050789;28;20029;-44
2023/05/02 03:01:06;;;;;;;15.70;4.95;;;7.40;83.30;;;;;;5043280;28;20060;-43
2023/05/02 03:03:34;;;;;;;20.77;4.13;;;7.40;83.30;;;;;;5054609;28;20413;-42
2023/05/02 03:06:04;;;;;;;21.17;5.80;;;7.40;83.30;;;;;;5036751;28;20123;-42
2023/05/02 03:08:42;;;;;;;14.57;4.18;;;7.40;83.10;;;;;;5062126;28;21066;-43
2023/05/02 03:11:10;;;;;;;17.88;4.68;;;7.40;82.80;;;;;;5011200;28;20056;-44
2023/05/02 03:13:38;;;;;;;12.43;4.63;;;7.30;82.70;;;;;;5040005;28;20316;-45
2023/05/02 03:16:22;;;;;;;18.83;4.32;;;7.30;82.40;;;;;;5045454;28;20020;-42
2023/05/02 03:18:49;;;;;;;18.80;3.90;;;7.40;82.40;;;;;;5034951;28;20033;-46
2023/05/02 03:21:17;;;;;;;18.15;4.30;;;7.30;82.00;;;;;;5037708;28;20090;-43
2023/05/02 03:23:48;;;;;;;13.48;3.63;;;7.30;81.80;;;;;;5072614;28;20044;-46
2023/05/02 03:26:18;;;;;;;11.25;3.45;;;7.30;81.90;;;;;;5055812;28;20021;-44
2023/05/02 03:28:46;;;;;;;21.02;5.15;;;7.30;81.20;;;;;;5038646;28;20536;-43
2023/05/02 03:31:13;;;;;;;14.77;4.10;;;7.20;81.30;;;;;;5049931;28;20446;-44
2023/05/02 03:33:40;;;;;;;19.80;3.63;;;7.20;81.50;;;;;;5022458;28;20025;-44
2023/05/02 03:36:06;;;;;;;15.60;3.97;;;7.20;81.50;;;;;;5052812;28;20474;-45
2023/05/02 03:38:33;;;;;;;12.05;4.40;;;7.20;80.60;;;;;;5057916;28;20029;-43
2023/05/02 03:41:01;;;;;;;14.32;3.50;;;7.20;80.60;;;;;;5072402;28;20036;-45
2023/05/02 03:43:29;;;;;;;18.90;4.00;;;7.20;80.70;;;;;;5052921;28;20108;-43
2023/05/02 03:46:06;;;;;;;12.82;3.70;;;7.20;80.40;;;;;;5059968;28;20032;-47
2023/05/02 03:48:34;;;;;;;17.73;3.70;;;7.20;80.10;;;;;;5053663;28;20032;-44
2023/05/02 03:51:02;;;;;;;23.73;6.75;;;7.20;80.40;;;;;;5035981;28;20466;-44
2023/05/02 03:53:30;;;;;;;10.80;3.95;;;7.20;80.90;;;;;;5030653;28;20123;-44
2023/05/02 03:55:58;;;;;;;16.60;4.20;;;7.20;81.30;;;;;;5001067;28;20033;-44
2023/05/02 03:58:26;;;;;;;18.00;3.72;;;7.20;81.20;;;;;;5033050;28;20041;-45
2023/05/02 04:00:53;;;;;;;18.50;3.65;;;7.10;80.00;;;;;;5059044;28;20054;-48
2023/05/02 04:03:19;;;;;;;16.40;5.97;;;7.10;80.20;;;;;;5073512;28;20458;-45
2023/05/02 04:05:50;;;;;;;16.30;3.95;;;7.10;80.10;;;;;;5038225;28;20036;-45
2023/05/02 04:08:20;;;;;;;11.80;3.35;;;7.00;78.90;;;;;;5033675;28;20072;-45
2023/05/02 04:10:50;;;;;;;10.90;3.88;;;7.00;79.20;;;;;;5024715;28;20021;-45
2023/05/02 04:13:19;;;;;;;15.85;3.72;;;7.00;78.90;;;;;;5037363;28;20037;-47
2023/05/02 04:15:46;;;;;;;15.40;4.00;;;7.00;78.40;;;;;;5058235;28;20431;-45
2023/05/02 04:18:14;;;;;;;14.02;4.88;;;7.00;78.20;;;;;;5056663;28;20025;-46
2023/05/02 04:20:44;;;;;;;15.25;3.83;;;7.00;78.50;;;;;;5046650;28;20056;-46
2023/05/02 04:23:11;;;;;;;9.32;4.30;;;7.00;78.40;;;;;;5043020;28;20466;-44
2023/05/02 04:25:38;;;;;;;14.60;4.55;;;7.00;78.20;;;;;;5048312;28;20101;-45
2023/05/02 04:28:06;;;;;;;12.85;3.75;;;7.00;76.80;;;;;;5034036;28;20025;-45
2023/05/02 04:30:44;;;;;;;12.02;3.88;;;7.00;76.40;;;;;;5021760;28;20036;-45
2023/05/02 04:33:10;;;;;;;12.82;3.53;;;6.90;76.10;;;;;;5073562;28;20043;-47
2023/05/02 04:35:42;;;;;;;9.20;2.85;;;6.90;76.00;;;;;;5059800;28;20028;-46
2023/05/02 04:38:08;;;;;;;10.43;3.75;;;6.90;74.60;;;;;;5040078;28;20024;-47
2023/05/02 04:40:40;;;;;;;15.20;4.18;;;6.80;73.60;;;;;;5046867;28;20124;-45
2023/05/02 04:43:08;;;;;;;11.93;3.35;;;6.80;73.00;;;;;;5033315;28;20103;-45
2023/05/02 04:45:37;;;;;;;14.00;3.92;;;6.80;73.80;;;;;;5050476;28;20035;-44
2023/05/02 04:48:04;;;;;;;10.10;2.92;;;6.80;73.40;;;;;;5055788;28;20082;-45
2023/05/02 04:50:31;;;;;;;12.52;4.60;;;6.80;72.50;;;;;;5035812;28;20115;-44
2023/05/02 04:52:58;;;;;;;14.43;3.00;;;6.90;73.20;;;;;;5071378;28;20369;-47
2023/05/02 04:55:24;;;;;;;12.32;3.05;;;6.90;73.20;;;;;;5072968;28;20082;-46
2023/05/02 04:57:52;;;;;;;15.02;3.88;;;6.90;72.80;;;;;;5070038;28;20035;-45
2023/05/02 05:00:22;;;;;;;8.77;2.95;;;6.90;73.70;;;;;;5047902;28;20029;-45
2023/05/02 05:02:50;;;;;;;11.95;3.35;;;6.90;73.50;;;;;;5050579;28;20032;-48
2023/05/02 05:05:21;;;;;;;12.20;3.03;;;7.00;73.60;;;;;;5051790;28;20032;-45
2023/05/02 05:07:53;;;;;;;11.85;4.20;;;6.90;72.90;;;;;;5052332;28;20113;-45
2023/05/02 05:10:20;;;;;;;11.10;3.00;;;6.90;72.80;;;;;;5034817;28;20038;-46
2023/05/02 05:12:48;;;;;;;11.10;3.55;;;7.00;73.00;;;;;;5036115;28;20017;-45
2023/05/02 05:15:14;;;;;;;12.77;3.47;;;7.00;72.90;;;;;;5051558;28;20500;-46
2023/05/02 05:17:41;;;;;;;6.57;2.83;;;7.00;72.20;;;;;;5016079;28;20033;-49
2023/05/02 05:20:10;;;;;;;13.25;3.70;;;7.00;71.80;;;;;;5036800;28;20072;-48
2023/05/02 05:22:43;;;;;;;10.80;3.73;;;7.00;71.20;;;;;;5065571;28;20036;-46
2023/05/02 05:25:10;;;;;;;12.27;3.35;;;7.00;71.60;;;;;;5052703;28;20438;-46
2023/05/02 05:27:38;;;;;;;11.50;3.40;;;7.00;72.00;;;;;;5043343;28;20041;-48
2023/05/02 05:30:05;;;;;;;13.40;3.85;;;7.10;72.30;;;;;;5049662;28;20032;-46
2023/05/02 05:32:32;;;;;;;7.85;3.10;;;7.20;72.40;;;;;;5034740;28;20040;-46
2023/05/02 05:34:58;;;;;;;12.10;4.07;;;7.20;72.70;;;;;;5011013;28;20028;-48
2023/05/02 05:37:25;;;;;;;12.07;2.88;;;7.20;72.20;;;;;;5052431;28;20632;-50
2023/05/02 05:39:52;;;;;;;14.02;3.42;;;7.20;72.50;;;;;;5015904;28;20028;-47
2023/05/02 05:42:19;;;;;;;14.40;4.32;;;7.20;72.80;;;;;;5033281;28;20592;-46
2023/05/02 05:44:48;;;;;;;13.65;3.25;;;7.20;71.70;;;;;;5058739;28;20082;-45
2023/05/02 05:47:20;;;;;;;14.10;3.95;;;7.30;71.50;;;;;;5052281;28;20094;-46
2023/05/02 05:49:54;;;;;;;11.50;3.28;;;7.30;71.90;;;;;;5052615;28;20059;-48
2023/05/02 05:52:22;;;;;;;15.88;3.72;;;7.30;71.20;;;;;;5050813;28;20089;-46
2023/05/02 05:54:52;;;;;;;15.40;3.60;;;7.30;71.20;;;;;;5039014;28;20034;-44
2023/05/02 05:57:19;;;;;;;11.32;2.90;;;7.40;70.50;;;;;;5035482;28;20465;-46
2023/05/02 05:59:48;;;;;;;8.40;2.85;;;7.40;68.90;;;;;;5030876;28;20033;-46
2023/05/02 06:02:15;;;;;;;15.40;3.05;;;7.40;68.90;;;;;;5031402;28;20025;-47
2023/05/02 06:04:42;;;;;;;11.05;3.67;;;7.50;69.00;;;;;;5043532;28;20060;-45
2023/05/02 06:07:09;;;;;;;9.38;3.15;;;7.50;68.80;;;;;;5034486;28;20048;-46
2023/05/02 06:09:35;;;;;;;8.98;2.78;;;7.50;68.60;;;;;;5030840;28;20378;-46
2023/05/02 06:12:02;;;;;;;9.65;2.90;;;7.50;69.00;;;;;;5032833;28;20029;-46
2023/05/02 06:14:29;;;;;;;12.23;3.00;;;7.50;69.90;;;;;;5050328;28;20032;-47
2023/05/02 06:16:59;;;;;;;12.68;2.63;;;7.50;70.90;;;;;;5033659;28;20451;-46
2023/05/02 06:19:25;;;;;;;8.05;2.95;;;7.60;71.40;;;;;;5061205;28;20377;-46
2023/05/02 06:21:51;;;;;;;8.15;2.30;;;7.60;70.50;;;;;;5027862;28;20041;-46
2023/05/02 06:24:17;;;;;;;8.88;3.13;;;7.70;70.70;;;;;;5016849;28;20028;-46
2023/05/02 06:26:43;;;;;;;9.68;2.15;;;7.80;69.90;;;;;;5021657;28;20510;-50
2023/05/02 06:29:08;;;;;;;10.40;2.15;;;8.00;70.30;;;;;;5039348;28;20063;-47
2023/05/02 06:31:38;;;;;;;8.85;2.42;;;8.10;69.30;;;;;;5027070;28;20056;-46
2023/05/02 06:34:04;;;;;;;6.55;2.22;;;8.30;67.60;;;;;;5050489;28;20086;-47
2023/05/02 06:36:32;;;;;;;7.78;2.28;;;8.40;66.00;;;;;;5064685;28;20032;-50
2023/05/02 06:39:00;;;;;;;12.25;3.05;;;8.40;66.60;;;;;;5038429;28;20032;-46
2023/05/02 06:41:30;;;;;;;7.93;2.38;;;8.40;66.30;;;;;;5051869;28;20378;-48
2023/05/02 06:44:03;;;;;;;5.93;2.10;;;8.50;66.60;;;;;;5048396;28;20037;-46
2023/05/02 06:46:30;;;;;;;7.80;2.25;;;8.70;67.40;;;;;;5050385;28;20036;-47
2023/05/02 06:48:56;;;;;;;8.57;2.72;;;8.80;66.40;;;;;;5044328;28;20082;-46
2023/05/02 06:51:23;;;;;;;9.18;2.70;;;8.80;67.40;;;;;;5063716;28;20021;-47
2023/05/02 06:53:52;;;;;;;6.30;1.90;;;8.70;69.30;;;;;;5067631;28;20474;-46
2023/05/02 06:56:17;;;;;;;6.78;2.20;;;8.60;68.80;;;;;;5048298;28;20033;-46
2023/05/02 06:58:47;;;;;;;6.60;1.80;;;8.60;68.60;;;;;;5017636;28;20507;-45
2023/05/02 07:01:15;;;;;;;7.40;2.50;;;8.90;68.20;;;;;;5053952;28;20496;-47
2023/05/02 07:03:42;;;;;;;12.07;2.00;;;9.30;67.50;;;;;;5046135;28;20049;-45
2023/05/02 07:06:10;;;;;;;9.50;2.53;;;9.20;65.20;;;;;;5051528;28;20025;-46
2023/05/02 07:08:38;;;;;;;7.28;1.85;;;9.10;66.40;;;;;;5052453;28;20059;-46
2023/05/02 07:11:05;;;;;;;5.82;1.83;;;9.30;66.60;;;;;;5044664;28;20032;-47
2023/05/02 07:13:34;;;;;;;6.47;1.98;;;9.30;65.20;;;;;;5052056;28;20048;-46
2023/05/02 07:16:00;;;;;;;8.90;1.83;;;9.30;66.30;;;;;;5051946;28;20435;-47
2023/05/02 07:18:28;;;;;;;3.10;1.27;;;9.30;66.00;;;;;;5034264;28;20087;-48
2023/05/02 07:20:54;;;;;;;4.00;1.73;;;9.30;64.40;;;;;;5052781;28;20025;-46
2023/05/02 07:23:23;;;;;;;5.85;1.50;;;9.30;64.40;;;;;;5041380;28;20548;-47
2023/05/02 07:25:56;;;;;;;4.85;1.40;;;9.50;64.70;;;;;;5052641;28;20036;-49
2023/05/02 07:28:28;;;;;;;9.30;1.60;;;9.60;64.90;;;;;;5050038;28;20417;-50
2023/05/02 07:30:57;;;;;;;6.10;1.45;;;9.90;64.10;;;;;;5051557;28;20033;-46
2023/05/02 07:33:23;;;;;;;6.88;1.50;;;10.10;64.90;;;;;;5053622;28;20055;-46
2023/05/02 07:35:50;;;;;;;9.80;1.70;;;10.10;62.30;;;;;;5045931;28;20017;-46
2023/05/02 07:38:19;;;;;;;7.57;1.58;;;10.10;63.20;;;;;;5037808;28;20084;-46
2023/05/02 07:40:46;;;;;;;4.32;1.48;;;10.20;63.80;;;;;;5051229;28;20031;-46
2023/05/02 07:43:14;;;;;;;5.68;1.50;;;9.90;63.90;;;;;;5039677;28;20367;-51
2023/05/02 07:45:42;;;;;;;7.72;1.50;;;9.70;65.40;;;;;;5043426;28;20733;-46
2023/05/02 07:48:15;;;;;;;4.93;1.67;;;9.50;66.20;;;;;;5019706;28;20032;-46
2023/05/02 07:50:43;;;;;;;6.05;1.73;;;9.30;68.00;;;;;;5036738;28;20044;-46
2023/05/02 07:53:10;;;;;;;4.03;1.20;;;9.20;68.60;;;;;;5055568;28;20027;-45
2023/05/02 07:55:41;;;;;;;5.10;1.30;;;9.40;67.80;;;;;;5046844;28;20363;-47
2023/05/02 07:58:06;;;;;;;3.97;1.40;;;10.00;67.10;;;;;;5039068;28;20041;-48
2023/05/02 08:00:32;;;;;;;3.10;1.10;;;10.70;63.40;;;;;;5063204;28;20038;-46
2023/05/02 08:03:03;;;;;;;4.45;1.67;;;11.40;62.90;;;;;;5046342;28;20043;-47
2023/05/02 08:05:37;;;;;;;6.97;1.45;;;12.20;60.50;;;;;;5040043;28;20033;-48
2023/05/02 08:08:04;;;;;;;3.30;1.20;;;12.60;58.60;;;;;;5033787;28;20104;-47
2023/05/02 08:10:35;;;;;;;5.72;1.38;;;12.50;57.50;;;;;;5022816;28;20038;-47
2023/05/02 08:13:12;;;;;;;6.18;1.73;;;11.60;59.10;;;;;;5047310;28;20052;-48
2023/05/02 08:15:42;;;;;;;5.22;1.45;;;11.50;60.90;;;;;;5035369;28;20028;-48
2023/05/02 08:18:13;;;;;;;6.85;1.52;;;11.60;61.60;;;;;;5051432;28;20028;-51
2023/05/02 08:20:43;;;;;;;6.85;2.13;;;11.70;60.50;;;;;;5048785;28;20224;-45
2023/05/02 08:23:12;;;;;;;7.20;1.70;;;11.40;61.20;;;;;;5029094;28;20029;-49
2023/05/02 08:25:39;;;;;;;;;;;11.00;63.90;;;;;;5051757;28;20045;-46
2023/05/02 08:28:05;;;;;;;5.43;1.92;;;10.40;65.00;;;;;;5012161;28;19923;-49
2023/05/02 08:30:35;;;;;;;4.50;1.33;;;9.90;66.00;;;;;;5033038;28;20033;-52
2023/05/02 08:33:03;;;;;;;7.75;1.58;;;9.70;67.40;;;;;;5050434;28;20033;-46
2023/05/02 08:35:30;;;;;;;5.43;1.48;;;10.30;66.60;;;;;;5032879;28;20051;-48
2023/05/02 08:37:59;;;;;;;5.20;1.23;;;11.30;63.80;;;;;;5033282;28;20021;-48
2023/05/02 08:40:37;;;;;;;4.93;1.05;;;11.90;60.50;;;;;;5025795;28;20044;-47
2023/05/02 08:43:09;;;;;;;4.75;1.23;;;12.30;60.00;;;;;;5007841;28;20041;-51
2023/05/02 08:45:47;;;;;;;6.30;1.38;;;12.50;59.40;;;;;;5028396;28;20052;-50
2023/05/02 08:48:16;;;;;;;6.45;1.55;;;12.00;60.40;;;;;;5037461;28;20029;-46
2023/05/02 08:50:46;;;;;;;7.43;1.50;;;11.50;60.10;;;;;;5024581;28;20135;-47
2023/05/02 08:53:28;;;;;;;4.47;1.25;;;11.30;61.10;;;;;;5033303;28;20051;-47
2023/05/02 08:56:00;;;;;;;9.20;1.63;;;11.50;61.60;;;;;;5039718;28;20025;-52
2023/05/02 08:58:35;;;;;;;6.88;1.80;;;11.90;61.60;;;;;;5042628;28;20045;-46
2023/05/02 09:01:08;;;;;;;7.00;1.52;;;12.30;58.80;;;;;;5048468;28;20071;-50
2023/05/02 09:03:36;;;;;;;6.25;1.70;;;11.80;59.90;;;;;;4998236;28;20125;-48
2023/05/02 09:06:13;;;;;;;3.80;1.75;;;11.50;61.40;;;;;;5033677;28;20094;-47
2023/05/02 09:08:41;;;;;;;7.47;1.48;;;10.90;62.70;;;;;;5031503;28;20072;-49
2023/05/02 09:11:14;;;;;;;8.13;2.05;;;10.30;66.20;;;;;;5036555;28;20098;-48
2023/05/02 09:14:03;;;;;;;7.53;1.75;;;9.70;68.10;;;;;;5039695;28;20076;-46
2023/05/02 09:16:38;;;;;;;5.80;1.23;;;9.50;68.50;;;;;;5026530;28;20064;-49
2023/05/02 09:19:07;;;;;;;5.43;1.95;;;9.30;69.00;;;;;;5016603;28;20365;-48
2023/05/02 09:21:40;;;;;;;5.82;1.38;;;9.30;68.60;;;;;;5028428;28;20029;-46
2023/05/02 09:24:25;;;;;;;5.53;1.33;;;9.90;68.60;;;;;;5029456;28;20055;-49
2023/05/02 09:27:08;;;;;;;10.70;1.30;;;10.80;63.30;;;;;;5012273;28;20467;-51
2023/05/02 09:29:39;;;;;;;6.03;2.30;;;10.70;62.60;;;;;;5012005;28;20121;-51
2023/05/02 09:32:05;;;;;;;4.97;1.38;;;10.60;65.80;;;;;;5010110;28;20038;-48
2023/05/02 09:34:37;;;;;;;9.15;1.75;;;10.40;66.90;;;;;;5027039;28;20044;-48
2023/05/02 09:37:05;;;;;;;6.85;2.10;;;10.40;68.10;;;;;;5011983;28;20033;-52
2023/05/02 09:39:36;;;;;;;8.77;2.38;;;10.40;67.60;;;;;;5030435;28;20063;-49
2023/05/02 09:42:07;;;;;;;8.18;1.60;;;10.40;67.70;;;;;;5013510;28;20032;-48
2023/05/02 09:44:39;;;;;;;11.35;2.08;;;10.60;68.20;;;;;;5027320;28;20039;-50
2023/05/02 09:47:23;;;;;;;4.45;1.40;;;10.50;68.20;;;;;;4999819;28;20045;-46
2023/05/02 09:49:51;;;;;;;5.97;2.00;;;10.40;70.20;;;;;;5026936;28;20026;-48
2023/05/02 09:52:28;;;;;;;7.65;1.08;;;10.30;70.60;;;;;;5029685;28;20040;-46
2023/05/02 09:54:57;;;;;;;7.65;1.35;;;10.30;68.80;;;;;;5014014;28;20054;-47
2023/05/02 09:57:40;;;;;;;4.50;1.40;;;10.40;63.90;;;;;;5026015;28;20085;-46
2023/05/02 10:00:09;;;;;;;3.97;1.00;;;10.50;64.10;;;;;;5027829;28;20029;-46
2023/05/02 10:02:39;;;;;;;7.82;1.52;;;10.60;64.50;;;;;;5037566;28;20036;-48
2023/05/02 10:05:18;;;;;;;12.40;1.92;;;11.00;63.40;;;;;;5023504;28;20045;-47
2023/05/02 10:07:47;;;;;;;7.55;1.80;;;11.30;61.60;;;;;;5033902;28;20072;-48
2023/05/02 10:10:17;;;;;;;10.98;1.85;;;11.30;62.40;;;;;;5047601;28;20045;-47
2023/05/02 10:12:51;;;;;;;14.80;1.55;;;11.20;62.50;;;;;;5055817;28;20039;-46
2023/05/02 10:15:22;;;;;;;6.88;1.63;;;11.40;63.70;;;;;;5043308;28;20032;-49
2023/05/02 10:17:52;;;;;;;3.63;1.40;;;11.90;63.60;;;;;;5037134;28;20052;-47
2023/05/02 10:20:23;;;;;;;4.75;1.15;;;11.90;61.90;;;;;;5028791;28;20112;-49
2023/05/02 10:22:51;;;;;;;6.88;1.65;;;12.40;62.20;;;;;;5042277;28;20112;-46
2023/05/02 10:25:19;;;;;;;5.22;1.77;;;12.30;58.70;;;;;;5064921;28;20035;-47
2023/05/02 10:27:47;;;;;;;5.65;2.08;;;12.20;61.70;;;;;;5038735;28;20029;-47
2023/05/02 10:30:13;;;;;;;6.47;1.80;;;12.10;59.70;;;;;;5035525;28;20067;-49
2023/05/02 10:32:50;;;;;;;4.70;2.33;;;11.80;58.70;;;;;;5055252;28;20033;-47
2023/05/02 10:35:19;;;;;;;6.07;1.38;;;11.60;61.70;;;;;;5052273;28;20044;-46
2023/05/02 10:37:49;;;;;;;6.90;1.30;;;11.50;61.30;;;;;;5035763;28;20029;-47
2023/05/02 10:40:17;;;;;;;4.82;1.33;;;11.10;63.30;;;;;;5052357;28;20021;-47
2023/05/02 10:42:56;;;;;;;7.90;2.03;;;11.00;63.00;;;;;;5046907;28;20805;-47
2023/05/02 10:45:38;;;;;;;9.05;1.65;;;10.80;66.00;;;;;;5036668;28;20037;-46
2023/05/02 10:48:27;;;;;;;7.82;1.70;;;10.30;68.70;;;;;;5039169;28;20491;-51
2023/05/02 10:50:55;;;;;;;5.28;1.50;;;10.20;69.80;;;;;;5050736;28;20127;-47
2023/05/02 10:53:30;;;;;;;7.35;1.67;;;10.40;67.90;;;;;;5059628;28;20025;-46
2023/05/02 10:56:11;;;;;;;6.45;1.27;;;10.70;65.80;;;;;;5063513;28;20176;-47
2023/05/02 10:58:39;;;;;;;9.10;1.30;;;11.50;65.70;;;;;;5040379;28;20033;-47
2023/05/02 11:01:23;;;;;;;8.13;1.58;;;11.90;61.90;;;;;;5043518;28;20389;-47
2023/05/02 11:04:11;;;;;;;6.22;1.48;;;12.00;61.10;;;;;;5055240;28;20103;-46
2023/05/02 11:07:04;;;;;;;6.78;1.50;;;11.80;61.90;;;;;;5057488;28;20031;-46
2023/05/02 11:09:32;;;;;;;6.13;1.60;;;11.50;65.50;;;;;;5054035;28;20033;-46
2023/05/02 11:12:00;;;;;;;8.73;2.42;;;11.20;66.10;;;;;;5031114;28;20028;-47
2023/05/02 11:14:39;;;;;;;3.90;1.35;;;11.30;65.90;;;;;;5055636;28;20351;-46
2023/05/02 11:17:10;;;;;;;7.22;1.38;;;12.10;64.90;;;;;;5058014;28;20050;-49
2023/05/02 11:20:03;;;;;;;9.27;1.38;;;12.10;64.60;;;;;;5052343;28;20037;-47
2023/05/02 11:22:32;;;;;;;6.10;1.45;;;11.70;63.70;;;;;;5041110;28;20040;-47
2023/05/02 11:25:04;;;;;;;5.75;1.70;;;11.20;64.80;;;;;;5051705;28;20047;-48
2023/05/02 11:27:36;;;;;;;7.32;1.80;;;10.90;65.40;;;;;;5055253;28;20024;-46
2023/05/02 11:30:08;;;;;;;6.57;1.10;;;10.90;65.30;;;;;;5048395;28;20025;-48
2023/05/02 11:32:50;;;;;;;5.28;1.00;;;11.00;64.80;;;;;;5043876;28;20442;-46
2023/05/02 11:35:30;;;;;;;5.80;1.17;;;11.00;62.60;;;;;;5052359;28;20041;-48
2023/05/02 11:37:59;;;;;;;4.37;0.90;;;10.90;64.00;;;;;;5042412;28;20029;-48
2023/05/02 11:40:30;;;;;;;4.38;1.40;;;10.60;64.50;;;;;;5036067;28;20025;-51
2023/05/02 11:43:00;;;;;;;6.32;1.00;;;10.30;65.80;;;;;;5010175;28;20072;-49
2023/05/02 11:45:47;;;;;;;6.88;1.02;;;9.90;65.60;;;;;;5018911;28;20036;-46
2023/05/02 11:48:16;;;;;;;8.55;1.23;;;9.80;67.50;;;;;;5014604;28;20040;-49
2023/05/02 11:51:03;;;;;;;3.00;1.00;;;9.90;68.90;;;;;;5057536;28;20025;-49
2023/05/02 11:53:31;;;;;;;6.40;1.35;;;10.10;66.70;;;;;;5051508;28;20048;-46
2023/05/02 11:56:01;;;;;;;4.75;1.45;;;10.30;66.30;;;;;;5053929;28;20116;-47
2023/05/02 11:58:34;;;;;;;7.60;1.00;;;10.70;66.30;;;;;;5041840;28;20438;-49
2023/05/02 12:01:16;;;;;;;2.22;0.65;;;11.00;65.50;;;;;;5051510;28;20177;-49
2023/05/02 12:03:43;;;;;;;3.88;1.63;;;11.30;63.40;;;;;;5055425;28;20032;-47
2023/05/02 12:06:29;;;;;;;8.70;1.73;;;11.40;63.10;;;;;;5048345;28;20346;-47
2023/05/02 12:09:16;;;;;;;6.65;1.38;;;11.40;61.10;;;;;;5049365;28;20419;-46
2023/05/02 12:11:44;;;;;;;5.13;0.98;;;11.30;59.30;;;;;;5039773;28;20036;-48
2023/05/02 12:14:11;;;;;;;3.17;0.93;;;11.50;60.00;;;;;;5043583;28;20578;-46
2023/05/02 12:16:43;;;;;;;4.97;0.90;;;11.60;60.60;;;;;;5052044;28;20033;-49
2023/05/02 12:19:11;;;;;;;3.95;0.70;;;11.50;60.20;;;;;;5042908;28;20044;-47
2023/05/02 12:21:38;;;;;;;7.55;1.02;;;11.50;61.30;;;;;;5036207;28;20048;-49
2023/05/02 12:24:05;;;;;;;7.07;1.35;;;11.40;61.20;;;;;;5034392;28;20029;-53
2023/05/02 12:26:36;;;;;;;6.95;1.05;;;11.40;62.20;;;;;;5034190;28;20689;-47
2023/05/02 12:29:06;;;;;;;6.18;0.85;;;11.70;63.40;;;;;;5051982;28;20443;-46
2023/05/02 12:31:35;;;;;;;4.13;0.90;;;12.10;59.70;;;;;;5048781;28;20351;-49
2023/05/02 12:34:02;;;;;;;5.60;1.42;;;11.60;60.30;;;;;;5034623;28;20175;-46
2023/05/02 12:36:28;;;;;;;6.03;1.00;;;11.40;61.40;;;;;;5050546;28;20557;-46
2023/05/02 12:38:58;;;;;;;6.95;0.93;;;11.10;61.90;;;;;;5050708;28;20025;-46
2023/05/02 12:41:44;;;;;;;;;;;10.90;60.50;;;;;;5034478;28;20040;-50
2023/05/02 12:44:12;;;;;;;6.43;0.93;;;10.90;60.20;;;;;;5051022;28;19913;-49
2023/05/02 12:47:00;;;;;;;2.58;0.70;;;11.30;60.40;;;;;;5057415;28;20524;-47
2023/05/02 12:49:31;;;;;;;5.72;0.98;;;11.30;60.10;;;;;;5031929;28;20450;-49
2023/05/02 12:51:59;;;;;;;3.03;0.63;;;11.20;59.50;;;;;;5032822;28;20044;-51
2023/05/02 12:54:25;;;;;;;6.30;1.20;;;11.40;60.90;;;;;;5032123;28;20466;-50
2023/05/02 12:56:51;;;;;;;3.35;1.00;;;11.20;61.50;;;;;;5032134;28;20037;-47
2023/05/02 12:59:30;;;;;;;5.65;1.17;;;10.90;61.20;;;;;;5032094;28;20029;-46
2023/05/02 13:01:59;;;;;;;4.55;1.48;;;10.60;61.70;;;;;;5051586;28;20024;-50
2023/05/02 13:04:45;;;;;;;3.65;1.90;;;10.70;63.20;;;;;;5048170;28;20028;-49
2023/05/02 13:07:12;;;;;;;7.68;1.38;;;11.10;63.90;;;;;;5030492;28;20071;-48
2023/05/02 13:09:41;;;;;;;10.25;1.15;;;11.30;61.20;;;;;;5067102;28;20506;-48